Time;durP1;ratioP1;P1;durP2;ratioP2;P2;SDS_P1;SDS_P2;PMS_P1;PMS_P2;Temp;Humidity;BMP_temperature;BMP_pressure;BME280_temperature;BME280_humidity;BME280_pressure;Samples;Min_cycle;Max_cycle;Signal;HPM_P1;HPM_P2
2024/02/01 00:00:34;;;;;;;;;;;;;;;;;;5049972;28;19956;-80
2024/02/01 00:03:01;;;;;;;;;;;;;;;;;;5051672;28;19928;-80
2024/02/01 00:05:28;;;;;;;;;;;;;;;;;;5050221;28;20452;-78
2024/02/01 00:07:55;;;;;;;;;;;;;;;;;;5050509;28;19974;-82
2024/02/01 00:10:22;;;;;;;;;;;;;;;;;;5051099;28;20027;-81
2024/02/01 00:12:49;;;;;;;;;;;;;;;;;;5045970;28;19944;-82
2024/02/01 00:15:16;;;;;;;;;;;;;;;;;;5060996;28;19928;-81
2024/02/01 00:17:43;;;;;;;;;;;;;;;;;;5056528;28;19972;-79
2024/02/01 00:20:10;;;;;;;;;;;;;;;;;;5050491;28;20040;-80
2024/02/01 00:22:37;;;;;;;;;;;;;;;;;;5048298;28;19936;-82
2024/02/01 00:25:05;;;;;;;;;;;;;;;;;;5048530;28;19936;-79
2024/02/01 00:27:32;;;;;;;;;;;;;;;;;;5048506;28;19928;-80
2024/02/01 00:29:59;;;;;;;;;;;;;;;;;;5050814;28;19997;-79
2024/02/01 00:32:26;;;;;;;;;;;;;;;;;;5059191;28;19960;-79
2024/02/01 00:34:53;;;;;;;;;;;;;;;;;;5047482;28;20476;-79
2024/02/01 00:37:20;;;;;;;;;;;;;;;;;;5045898;28;19943;-79
2024/02/01 00:39:47;;;;;;;;;;;;;;;;;;5048525;28;19976;-80
2024/02/01 00:42:14;;;;;;;;;;;;;;;;;;5047704;28;19939;-80
2024/02/01 00:44:41;;;;;;;;;;;;;;;;;;5049245;28;19963;-81
2024/02/01 00:47:08;;;;;;;;;;;;;;;;;;5053987;28;19972;-79
2024/02/01 00:49:35;;;;;;;;;;;;;;;;;;5040185;28;20502;-81
2024/02/01 00:52:03;;;;;;;;;;;;;;;;;;5050278;28;19940;-83
2024/02/01 00:54:30;;;;;;;;;;;;;;;;;;5048798;28;19932;-84
2024/02/01 00:56:57;;;;;;;;;;;;;;;;;;5048487;28;19933;-83
2024/02/01 00:59:24;;;;;;;;;;;;;;;;;;5050206;28;20026;-84
2024/02/01 01:01:51;;;;;;;;;;;;;;;;;;5051670;28;19983;-84
2024/02/01 01:04:18;;;;;;;;;;;;;;;;;;5059545;28;19982;-84
2024/02/01 01:06:45;;;;;;;;;;;;;;;;;;5050334;28;19986;-84
2024/02/01 01:09:12;;;;;;;;;;;;;;;;;;5050312;28;20422;-84
2024/02/01 01:11:39;;;;;;;;;;;;;;;;;;5050455;28;19932;-82
2024/02/01 01:14:06;;;;;;;;;;;;;;;;;;5048941;28;19929;-81
2024/02/01 01:16:33;;;;;;;;;;;;;;;;;;5059217;28;19928;-81
2024/02/01 01:19:00;;;;;;;;;;;;;;;;;;5048537;28;19928;-84
2024/02/01 01:21:27;;;;;;;;;;;;;;;;;;5049704;28;19936;-81
2024/02/01 01:23:54;;;;;;;;;;;;;;;;;;5048881;28;19929;-83
2024/02/01 01:26:21;;;;;;;;;;;;;;;;;;5048477;28;19929;-82
2024/02/01 01:28:49;;;;;;;;;;;;;;;;;;5049925;28;19954;-83
2024/02/01 01:31:16;;;;;;;;;;;;;;;;;;5047391;28;20019;-81
2024/02/01 01:33:43;;;;;;;;;;;;;;;;;;5046704;28;19929;-83
2024/02/01 01:36:10;;;;;;;;;;;;;;;;;;5047875;28;20348;-81
2024/02/01 01:38:37;;;;;;;;;;;;;;;;;;5048295;28;19928;-81
2024/02/01 01:41:04;;;;;;;;;;;;;;;;;;5047726;28;19974;-83
2024/02/01 01:43:31;;;;;;;;;;;;;;;;;;5048408;28;19929;-81
2024/02/01 01:45:58;;;;;;;;;;;;;;;;;;5050013;28;19928;-79
2024/02/01 01:48:26;;;;;;;;;;;;;;;;;;5051550;28;20002;-82
2024/02/01 01:50:53;;;;;;;;;;;;;;;;;;5048017;28;19982;-84
2024/02/01 01:53:20;;;;;;;;;;;;;;;;;;5047780;28;19944;-83
2024/02/01 01:55:47;;;;;;;;;;;;;;;;;;5049719;28;19928;-82
2024/02/01 01:58:14;;;;;;;;;;;;;;;;;;5047519;28;19951;-82
2024/02/01 02:00:41;;;;;;;;;;;;;;;;;;5046488;28;19932;-83
2024/02/01 02:03:08;;;;;;;;;;;;;;;;;;5043296;28;19929;-81
2024/02/01 02:05:35;;;;;;;;;;;;;;;;;;5046649;28;20020;-82
2024/02/01 02:08:02;;;;;;;;;;;;;;;;;;5045755;28;20024;-82
2024/02/01 02:10:29;;;;;;;;;;;;;;;;;;5046750;28;19936;-82
2024/02/01 02:12:56;;;;;;;;;;;;;;;;;;5057174;28;19933;-81
2024/02/01 02:15:23;;;;;;;;;;;;;;;;;;5046836;28;19982;-82
2024/02/01 02:17:50;;;;;;;;;;;;;;;;;;5047382;28;19978;-81
2024/02/01 02:20:18;;;;;;;;;;;;;;;;;;5046027;28;19990;-82
2024/02/01 02:22:45;;;;;;;;;;;;;;;;;;5047387;28;19935;-83
2024/02/01 02:25:13;;;;;;;;;;;;;;;;;;5044856;28;19924;-81
2024/02/01 02:27:41;;;;;;;;;;;;;;;;;;5047154;28;19935;-82
2024/02/01 02:30:08;;;;;;;;;;;;;;;;;;5045978;28;19935;-81
2024/02/01 02:32:35;;;;;;;;;;;;;;;;;;5045030;28;20019;-81
2024/02/01 02:35:02;;;;;;;;;;;;;;;;;;5044954;28;19929;-80
2024/02/01 02:37:29;;;;;;;;;;;;;;;;;;5046503;28;19929;-79
2024/02/01 02:39:56;;;;;;;;;;;;;;;;;;5042632;28;19928;-80
2024/02/01 02:42:23;;;;;;;;;;;;;;;;;;5045928;28;19939;-81
2024/02/01 02:44:50;;;;;;;;;;;;;;;;;;5045786;28;20003;-81
2024/02/01 02:47:17;;;;;;;;;;;;;;;;;;5044999;28;20346;-81
2024/02/01 02:49:45;;;;;;;;;;;;;;;;;;5045373;28;20307;-77
2024/02/01 02:52:12;;;;;;;;;;;;;;;;;;5045017;28;19986;-80
2024/02/01 02:54:39;;;;;;;;;;;;;;;;;;5047611;28;19930;-81
2024/02/01 02:57:06;;;;;;;;;;;;;;;;;;5045613;28;19976;-79
2024/02/01 02:59:33;;;;;;;;;;;;;;;;;;5045308;28;19929;-80
2024/02/01 03:02:00;;;;;;;;;;;;;;;;;;5043790;28;19976;-78
2024/02/01 03:04:27;;;;;;;;;;;;;;;;;;5051353;28;20368;-81
2024/02/01 03:06:54;;;;;;;;;;;;;;;;;;5045647;28;19972;-82
2024/02/01 03:09:21;;;;;;;;;;;;;;;;;;5045664;28;20466;-80
2024/02/01 03:11:48;;;;;;;;;;;;;;;;;;5045757;28;19952;-80
2024/02/01 03:14:15;;;;;;;;;;;;;;;;;;5045875;28;20024;-81
2024/02/01 03:16:42;;;;;;;;;;;;;;;;;;5045800;28;20426;-82
2024/02/01 03:19:11;;;;;;;;;;;;;;;;;;5046136;28;19975;-82
2024/02/01 03:21:38;;;;;;;;;;;;;;;;;;5046745;28;19936;-79
2024/02/01 03:24:05;;;;;;;;;;;;;;;;;;5044457;28;20430;-79
2024/02/01 03:26:34;;;;;;;;;;;;;;;;;;5052864;28;19932;-77
2024/02/01 03:29:01;;;;;;;;;;;;;;;;;;5045886;28;20311;-77
2024/02/01 03:31:33;;;;;;;;;;;;;;;;;;5044883;28;20387;-77
2024/02/01 03:34:05;;;;;;;;;;;;;;;;;;5044501;28;20468;-77
2024/02/01 03:36:32;;;;;;;;;;;;;;;;;;5047468;28;20403;-78
2024/02/01 03:38:59;;;;;;;;;;;;;;;;;;5051330;28;20032;-77
2024/02/01 03:41:27;;;;;;;;;;;;;;;;;;5045520;28;19935;-78
2024/02/01 03:43:54;;;;;;;;;;;;;;;;;;5045394;28;20023;-76
2024/02/01 03:46:22;;;;;;;;;;;;;;;;;;5045550;28;20411;-76
2024/02/01 03:48:49;;;;;;;;;;;;;;;;;;5044550;28;19990;-76
2024/02/01 03:51:18;;;;;;;;;;;;;;;;;;5045379;28;20408;-77
2024/02/01 03:53:45;;;;;;;;;;;;;;;;;;5044099;28;19928;-77
2024/02/01 03:56:13;;;;;;;;;;;;;;;;;;5045961;28;19990;-77
2024/02/01 03:58:40;;;;;;;;;;;;;;;;;;5046274;28;19986;-76
2024/02/01 04:01:07;;;;;;;;;;;;;;;;;;5044779;28;20025;-78
2024/02/01 04:03:40;;;;;;;;;;;;;;;;;;5044056;28;20218;-78
2024/02/01 04:06:07;;;;;;;;;;;;;;;;;;5044334;28;19929;-77
2024/02/01 04:08:34;;;;;;;;;;;;;;;;;;5045144;28;19929;-77
2024/02/01 04:11:01;;;;;;;;;;;;;;;;;;5051186;28;19982;-78
2024/02/01 04:13:28;;;;;;;;;;;;;;;;;;5047859;28;20108;-77
2024/02/01 04:15:55;;;;;;;;;;;;;;;;;;5049130;28;20006;-77
2024/02/01 04:18:22;;;;;;;;;;;;;;;;;;5048221;28;19960;-77
2024/02/01 04:20:49;;;;;;;;;;;;;;;;;;5048566;28;19928;-77
2024/02/01 04:23:16;;;;;;;;;;;;;;;;;;5046317;28;20027;-78
2024/02/01 04:25:43;;;;;;;;;;;;;;;;;;5047370;28;20024;-78
2024/02/01 04:28:12;;;;;;;;;;;;;;;;;;5044814;28;19976;-78
2024/02/01 04:30:39;;;;;;;;;;;;;;;;;;5048892;28;19928;-78
2024/02/01 04:33:07;;;;;;;;;;;;;;;;;;5045769;28;19964;-76
2024/02/01 04:35:34;;;;;;;;;;;;;;;;;;5043548;28;20568;-77
2024/02/01 04:38:01;;;;;;;;;;;;;;;;;;5047692;28;20014;-78
2024/02/01 04:40:28;;;;;;;;;;;;;;;;;;5047466;28;19975;-77
2024/02/01 04:42:57;;;;;;;;;;;;;;;;;;5048171;28;19928;-77
2024/02/01 04:45:24;;;;;;;;;;;;;;;;;;5048383;28;19935;-77
2024/02/01 04:47:51;;;;;;;;;;;;;;;;;;5047891;28;20463;-77
2024/02/01 04:50:18;;;;;;;;;;;;;;;;;;5047996;28;19936;-77
2024/02/01 04:52:45;;;;;;;;;;;;;;;;;;5047838;28;19932;-76
2024/02/01 04:55:12;;;;;;;;;;;;;;;;;;5047945;28;19972;-78
2024/02/01 04:57:40;;;;;;;;;;;;;;;;;;5048136;28;19944;-79
2024/02/01 05:00:13;;;;;;;;;;;;;;;;;;5047239;28;19936;-79
2024/02/01 05:02:40;;;;;;;;;;;;;;;;;;5047156;28;19967;-79
2024/02/01 05:05:08;;;;;;;;;;;;;;;;;;5046881;28;20474;-79
2024/02/01 05:07:35;;;;;;;;;;;;;;;;;;5047312;28;19929;-76
2024/02/01 05:10:02;;;;;;;;;;;;;;;;;;5047886;28;20002;-78
2024/02/01 05:12:30;;;;;;;;;;;;;;;;;;5047823;28;19929;-82
2024/02/01 05:14:57;;;;;;;;;;;;;;;;;;5046828;28;19975;-81
2024/02/01 05:17:24;;;;;;;;;;;;;;;;;;5047270;28;20006;-83
2024/02/01 05:19:51;;;;;;;;;;;;;;;;;;5049640;28;19928;-82
2024/02/01 05:22:18;;;;;;;;;;;;;;;;;;5047617;28;19928;-81
2024/02/01 05:24:45;;;;;;;;;;;;;;;;;;5046634;28;19928;-81
2024/02/01 05:27:12;;;;;;;;;;;;;;;;;;5048121;28;19995;-81
2024/02/01 05:29:40;;;;;;;;;;;;;;;;;;5048023;28;20012;-81
2024/02/01 05:32:07;;;;;;;;;;;;;;;;;;5047430;28;19928;-82
2024/02/01 05:34:34;;;;;;;;;;;;;;;;;;5048348;28;19928;-81
2024/02/01 05:37:01;;;;;;;;;;;;;;;;;;5048588;28;19968;-81
2024/02/01 05:39:28;;;;;;;;;;;;;;;;;;5049793;28;19932;-84
2024/02/01 05:41:56;;;;;;;;;;;;;;;;;;5048922;28;20397;-84
2024/02/01 05:44:23;;;;;;;;;;;;;;;;;;5049498;28;19998;-85
2024/02/01 05:46:50;;;;;;;;;;;;;;;;;;5049651;28;19929;-83
2024/02/01 05:49:19;;;;;;;;;;;;;;;;;;5050601;28;19937;-82
2024/02/01 05:51:46;;;;;;;;;;;;;;;;;;5061084;28;19982;-82
2024/02/01 05:54:13;;;;;;;;;;;;;;;;;;5052312;28;20019;-81
2024/02/01 05:56:42;;;;;;;;;;;;;;;;;;5049488;28;19982;-82
2024/02/01 05:59:10;;;;;;;;;;;;;;;;;;5048382;28;20326;-80
2024/02/01 06:01:37;;;;;;;;;;;;;;;;;;5047935;28;20312;-80
2024/02/01 06:04:04;;;;;;;;;;;;;;;;;;5047842;28;19933;-81
2024/02/01 06:06:31;;;;;;;;;;;;;;;;;;5047982;28;19976;-80
2024/02/01 06:08:58;;;;;;;;;;;;;;;;;;5046959;28;19984;-81
2024/02/01 06:11:26;;;;;;;;;;;;;;;;;;5046662;28;19960;-79
2024/02/01 06:13:53;;;;;;;;;;;;;;;;;;5046603;28;19933;-80
2024/02/01 06:16:20;;;;;;;;;;;;;;;;;;5046063;28;19932;-79
2024/02/01 06:18:47;;;;;;;;;;;;;;;;;;5045853;28;20744;-81
2024/02/01 06:21:14;;;;;;;;;;;;;;;;;;5046662;28;19964;-80
2024/02/01 06:23:42;;;;;;;;;;;;;;;;;;5045087;28;19928;-81
2024/02/01 06:26:09;;;;;;;;;;;;;;;;;;5046506;28;19992;-81
2024/02/01 06:28:36;;;;;;;;;;;;;;;;;;5047027;28;19929;-80
2024/02/01 06:31:03;;;;;;;;;;;;;;;;;;5045442;28;19929;-82
2024/02/01 06:33:30;;;;;;;;;;;;;;;;;;5046866;28;19932;-82
2024/02/01 06:35:57;;;;;;;;;;;;;;;;;;5046908;28;19933;-77
2024/02/01 06:38:44;;;;;;;;;;;;;;;;;;5039876;28;20347;-81
2024/02/01 06:41:17;;;;;;;;;;;;;;;;;;5042667;28;20043;-82
2024/02/01 06:44:08;;;;;;;;;;;;;;;;;;5046401;28;19935;-80
2024/02/01 06:46:49;;;;;;;;;;;;;;;;;;5045490;28;20360;-80
2024/02/01 06:49:28;;;;;;;;;;;;;;;;;;5047097;28;19928;-81
2024/02/01 06:52:02;;;;;;;;;;;;;;;;;;5045619;28;20028;-79
2024/02/01 06:54:39;;;;;;;;;;;;;;;;;;5045132;28;20522;-79
2024/02/01 06:57:18;;;;;;;;;;;;;;;;;;5048591;28;19936;-81
2024/02/01 07:00:06;;;;;;;;;;;;;;;;;;5048181;28;19935;-79
2024/02/01 07:02:35;;;;;;;;;;;;;;;;;;5051269;28;19935;-79
2024/02/01 07:05:11;;;;;;;;;;;;;;;;;;5054252;28;20281;-81
2024/02/01 07:07:42;;;;;;;;;;;;;;;;;;5046098;28;19933;-79
2024/02/01 07:10:16;;;;;;;;;;;;;;;;;;5046654;28;20035;-74
2024/02/01 07:12:42;;;;;;;;;;;;;;;;;;5049862;28;19932;-81
2024/02/01 07:15:31;;;;;;;;;;;;;;;;;;5054768;28;20303;-83
2024/02/01 07:17:59;;;;;;;;;;;;;;;;;;5047899;28;19929;-80
2024/02/01 07:20:35;;;;;;;;;;;;;;;;;;5044943;28;19929;-75
2024/02/01 07:23:03;;;;;;;;;;;;;;;;;;5044412;28;20234;-74
2024/02/01 07:25:47;;;;;;;;;;;;;;;;;;5046080;28;19929;-82
2024/02/01 07:58:26;;;;;;;;;;;;;;;;;;5042416;28;20410;-78
2024/02/01 08:00:56;;;;;;;;;;;;;;;;;;5054184;28;19929;-78
2024/02/01 08:03:32;;;;;;;;;;;;;;;;;;5053654;28;19929;-78
2024/02/01 08:08:44;;;;;;;;;;;;;;;;;;5033393;28;20026;-76
2024/02/01 08:11:17;;;;;;;;;;;;;;;;;;5049120;28;19928;-75
2024/02/01 08:13:48;;;;;;;;;;;;;;;;;;5047068;28;19929;-76
2024/02/01 08:16:17;;;;;;;;;;;;;;;;;;5047729;28;19928;-76
2024/02/01 08:18:44;;;;;;;;;;;;;;;;;;5048761;28;20339;-76
2024/02/01 08:21:14;;;;;;;;;;;;;;;;;;5048534;28;20303;-70
2024/02/01 08:23:41;;;;;;;;;;;;;;;;;;5048075;28;19932;-74
2024/02/01 08:26:08;;;;;;;;;;;;;;;;;;5048870;28;20389;-75
2024/02/01 08:28:35;;;;;;;;;;;;;;;;;;5037421;28;20391;-74
2024/02/01 08:31:08;;;;;;;;;;;;;;;;;;5045143;28;19929;-75
2024/02/01 08:33:35;;;;;;;;;;;;;;;;;;5047668;28;19951;-79
2024/02/01 08:36:03;;;;;;;;;;;;;;;;;;5047584;28;19932;-83
2024/02/01 08:38:32;;;;;;;;;;;;;;;;;;5048119;28;19929;-85
2024/02/01 08:41:00;;;;;;;;;;;;;;;;;;5048482;28;19968;-83
2024/02/01 08:43:30;;;;;;;;;;;;;;;;;;5044442;28;20387;-80
2024/02/01 08:45:57;;;;;;;;;;;;;;;;;;5047775;28;20031;-77
2024/02/01 08:48:25;;;;;;;;;;;;;;;;;;5042536;28;19928;-78
2024/02/01 08:50:54;;;;;;;;;;;;;;;;;;5047010;28;19935;-79
2024/02/01 08:53:22;;;;;;;;;;;;;;;;;;5048623;28;20023;-78
2024/02/01 08:55:52;;;;;;;;;;;;;;;;;;5048371;28;19928;-77
2024/02/01 08:58:20;;;;;;;;;;;;;;;;;;5037686;28;20007;-79
2024/02/01 09:00:47;;;;;;;;;;;;;;;;;;5053074;28;19928;-78
2024/02/01 09:03:16;;;;;;;;;;;;;;;;;;5043090;28;19933;-74
2024/02/01 09:05:43;;;;;;;;;;;;;;;;;;5039033;28;19959;-76
2024/02/01 09:08:12;;;;;;;;;;;;;;;;;;5047713;28;19972;-79
2024/02/01 09:10:50;;;;;;;;;;;;;;;;;;5048204;28;20011;-72
2024/02/01 09:13:17;;;;;;;;;;;;;;;;;;5039893;28;19928;-74
2024/02/01 09:15:44;;;;;;;;;;;;;;;;;;5047258;28;20365;-76
2024/02/01 09:18:11;;;;;;;;;;;;;;;;;;5044471;28;20040;-76
2024/02/01 09:20:38;;;;;;;;;;;;;;;;;;5043623;28;19964;-75
2024/02/01 09:23:05;;;;;;;;;;;;;;;;;;5047476;28;20021;-74
2024/02/01 09:25:32;;;;;;;;;;;;;;;;;;5044809;28;19976;-75
2024/02/01 09:28:00;;;;;;;;;;;;;;;;;;5048818;28;20141;-74
2024/02/01 09:30:28;;;;;;;;;;;;;;;;;;5044572;28;20403;-78
2024/02/01 09:32:55;;;;;;;;;;;;;;;;;;5042291;28;20430;-76
2024/02/01 09:35:22;;;;;;;;;;;;;;;;;;5047750;28;20395;-77
2024/02/01 09:37:51;;;;;;;;;;;;;;;;;;5048192;28;20017;-74
2024/02/01 09:40:18;;;;;;;;;;;;;;;;;;5047077;28;19928;-77
2024/02/01 09:42:45;;;;;;;;;;;;;;;;;;5046657;28;20356;-74
2024/02/01 09:45:12;;;;;;;;;;;;;;;;;;5043924;28;20041;-75
2024/02/01 09:47:46;;;;;;;;;;;;;;;;;;5045873;28;19932;-77
2024/02/01 09:50:13;;;;;;;;;;;;;;;;;;5048036;28;19935;-79
2024/02/01 09:52:40;;;;;;;;;;;;;;;;;;5046693;28;19928;-75
2024/02/01 09:55:08;;;;;;;;;;;;;;;;;;5048914;28;20102;-76
2024/02/01 09:57:40;;;;;;;;;;;;;;;;;;5048519;28;20402;-78
2024/02/01 10:00:10;;;;;;;;;;;;;;;;;;5047584;28;19983;-77
2024/02/01 10:02:39;;;;;;;;;;;;;;;;;;5049031;28;19929;-79
2024/02/01 10:05:07;;;;;;;;;;;;;;;;;;5050528;28;19963;-75
2024/02/01 10:07:34;;;;;;;;;;;;;;;;;;5052602;28;20399;-77
2024/02/01 10:10:04;;;;;;;;;;;;;;;;;;5051425;28;19929;-78
2024/02/01 10:12:31;;;;;;;;;;;;;;;;;;5043038;28;19936;-80
2024/02/01 10:14:58;;;;;;;;;;;;;;;;;;5047992;28;19971;-79
2024/02/01 10:17:25;;;;;;;;;;;;;;;;;;5047721;28;19929;-79
2024/02/01 10:19:54;;;;;;;;;;;;;;;;;;5044861;28;20026;-80
2024/02/01 10:22:21;;;;;;;;;;;;;;;;;;5044349;28;19936;-78
2024/02/01 10:24:49;;;;;;;;;;;;;;;;;;5042541;28;19982;-79
2024/02/01 10:27:19;;;;;;;;;;;;;;;;;;5049250;28;19947;-79
2024/02/01 10:29:46;;;;;;;;;;;;;;;;;;5053023;28;19936;-80
2024/02/01 10:32:13;;;;;;;;;;;;;;;;;;5042886;28;20014;-80
2024/02/01 10:34:41;;;;;;;;;;;;;;;;;;5045165;28;20395;-79
2024/02/01 10:37:08;;;;;;;;;;;;;;;;;;5042636;28;20292;-79
2024/02/01 10:39:35;;;;;;;;;;;;;;;;;;5046086;28;20478;-79
2024/02/01 10:42:02;;;;;;;;;;;;;;;;;;5048267;28;19970;-80
2024/02/01 10:44:32;;;;;;;;;;;;;;;;;;5047378;28;19932;-80
2024/02/01 10:46:59;;;;;;;;;;;;;;;;;;5043435;28;19940;-81
2024/02/01 10:49:26;;;;;;;;;;;;;;;;;;5047547;28;20419;-78
2024/02/01 10:51:55;;;;;;;;;;;;;;;;;;5047950;28;20022;-78
2024/02/01 10:54:22;;;;;;;;;;;;;;;;;;5046039;28;19990;-77
2024/02/01 10:56:49;;;;;;;;;;;;;;;;;;5045753;28;19967;-77
2024/02/01 10:59:17;;;;;;;;;;;;;;;;;;5047015;28;19968;-79
2024/02/01 11:01:44;;;;;;;;;;;;;;;;;;5046567;28;20346;-77
2024/02/01 11:04:12;;;;;;;;;;;;;;;;;;5045959;28;20396;-76
2024/02/01 11:06:39;;;;;;;;;;;;;;;;;;5047346;28;19935;-73
2024/02/01 11:09:18;;;;;;;;;;;;;;;;;;5047711;28;20676;-77
2024/02/01 11:11:46;;;;;;;;;;;;;;;;;;5047981;28;19940;-78
2024/02/01 11:14:13;;;;;;;;;;;;;;;;;;5046120;28;19959;-78
2024/02/01 11:16:40;;;;;;;;;;;;;;;;;;5057368;28;19959;-78
2024/02/01 11:19:07;;;;;;;;;;;;;;;;;;5048030;28;20053;-79
2024/02/01 11:21:34;;;;;;;;;;;;;;;;;;5048848;28;20037;-79
2024/02/01 11:24:01;;;;;;;;;;;;;;;;;;5050122;28;19929;-76
2024/02/01 11:26:28;;;;;;;;;;;;;;;;;;5051009;28;20035;-75
2024/02/01 11:28:55;;;;;;;;;;;;;;;;;;5049952;28;19929;-76
2024/02/01 11:31:25;;;;;;;;;;;;;;;;;;5050864;28;19961;-77
2024/02/01 11:33:52;;;;;;;;;;;;;;;;;;5051196;28;21898;-78
2024/02/01 11:36:19;;;;;;;;;;;;;;;;;;5049094;28;19929;-78
2024/02/01 11:38:46;;;;;;;;;;;;;;;;;;5048651;28;19932;-76
2024/02/01 11:41:13;;;;;;;;;;;;;;;;;;5049823;28;20336;-77
2024/02/01 11:43:40;;;;;;;;;;;;;;;;;;5050868;28;19933;-76
2024/02/01 11:46:07;;;;;;;;;;;;;;;;;;5049451;28;19929;-76
2024/02/01 11:48:34;;;;;;;;;;;;;;;;;;5035321;28;19933;-78
2024/02/01 11:51:03;;;;;;;;;;;;;;;;;;5059647;28;20426;-77
2024/02/01 11:53:30;;;;;;;;;;;;;;;;;;5050944;28;19939;-77
2024/02/01 11:55:57;;;;;;;;;;;;;;;;;;5052102;28;19975;-80
2024/02/01 11:58:26;;;;;;;;;;;;;;;;;;5050303;28;20368;-80
2024/02/01 12:00:55;;;;;;;;;;;;;;;;;;5044915;28;20390;-80
2024/02/01 12:03:22;;;;;;;;;;;;;;;;;;5050561;28;19937;-81
2024/02/01 12:05:49;;;;;;;;;;;;;;;;;;5050534;28;19929;-78
2024/02/01 12:08:16;;;;;;;;;;;;;;;;;;5063788;28;19964;-79
2024/02/01 12:10:45;;;;;;;;;;;;;;;;;;5049975;28;20540;-77
2024/02/01 12:13:13;;;;;;;;;;;;;;;;;;5041581;28;19944;-81
2024/02/01 12:15:40;;;;;;;;;;;;;;;;;;5050314;28;20018;-83
2024/02/01 12:18:08;;;;;;;;;;;;;;;;;;5051436;28;19966;-82
2024/02/01 12:20:36;;;;;;;;;;;;;;;;;;5036987;28;19968;-81
2024/02/01 12:23:03;;;;;;;;;;;;;;;;;;5042922;28;19935;-82
2024/02/01 12:25:30;;;;;;;;;;;;;;;;;;5052499;28;20448;-80
2024/02/01 12:27:57;;;;;;;;;;;;;;;;;;5051911;28;19928;-80
2024/02/01 12:30:27;;;;;;;;;;;;;;;;;;5043996;28;19929;-80
2024/02/01 12:32:54;;;;;;;;;;;;;;;;;;5043213;28;19929;-79
2024/02/01 12:35:21;;;;;;;;;;;;;;;;;;5038342;28;19929;-79
2024/02/01 12:37:48;;;;;;;;;;;;;;;;;;5050650;28;19962;-77
2024/02/01 12:40:15;;;;;;;;;;;;;;;;;;5050486;28;20002;-80
2024/02/01 12:42:42;;;;;;;;;;;;;;;;;;5050418;28;20376;-80
2024/02/01 12:45:17;;;;;;;;;;;;;;;;;;5050094;28;20005;-79
2024/02/01 12:47:47;;;;;;;;;;;;;;;;;;5045630;28;19991;-80
2024/02/01 12:50:15;;;;;;;;;;;;;;;;;;5050025;28;19932;-80
2024/02/01 12:52:42;;;;;;;;;;;;;;;;;;5051679;28;19945;-79
2024/02/01 12:55:09;;;;;;;;;;;;;;;;;;5050086;28;19928;-81
2024/02/01 12:57:37;;;;;;;;;;;;;;;;;;5046995;28;19997;-77
2024/02/01 13:00:05;;;;;;;;;;;;;;;;;;5046210;28;20055;-78
2024/02/01 13:02:32;;;;;;;;;;;;;;;;;;5049167;28;19982;-74
2024/02/01 13:04:59;;;;;;;;;;;;;;;;;;5048945;28;19932;-79
2024/02/01 13:07:26;;;;;;;;;;;;;;;;;;5048483;28;20030;-80
2024/02/01 13:09:53;;;;;;;;;;;;;;;;;;5050159;28;20370;-83
2024/02/01 13:12:21;;;;;;;;;;;;;;;;;;5049557;28;19983;-77
2024/02/01 13:14:57;;;;;;;;;;;;;;;;;;5053233;28;19934;-82
2024/02/01 13:17:24;;;;;;;;;;;;;;;;;;5047490;28;20043;-79
2024/02/01 13:19:51;;;;;;;;;;;;;;;;;;5048828;28;20008;-79
2024/02/01 13:22:18;;;;;;;;;;;;;;;;;;5050489;28;20411;-83
2024/02/01 13:24:46;;;;;;;;;;;;;;;;;;5049733;28;19929;-80
2024/02/01 13:27:13;;;;;;;;;;;;;;;;;;5051185;28;19972;-81
2024/02/01 13:29:42;;;;;;;;;;;;;;;;;;5051972;28;19936;-81
2024/02/01 13:32:09;;;;;;;;;;;;;;;;;;5057571;28;19928;-80
2024/02/01 13:34:39;;;;;;;;;;;;;;;;;;5050302;28;19929;-77
2024/02/01 13:37:06;;;;;;;;;;;;;;;;;;5051023;28;19928;-80
2024/02/01 13:39:34;;;;;;;;;;;;;;;;;;5051988;28;20383;-80
2024/02/01 13:42:01;;;;;;;;;;;;;;;;;;5050846;28;20010;-80
2024/02/01 13:44:28;;;;;;;;;;;;;;;;;;5051828;28;20380;-81
2024/02/01 13:46:55;;;;;;;;;;;;;;;;;;5051459;28;19972;-80
2024/02/01 13:49:22;;;;;;;;;;;;;;;;;;5046307;28;19928;-78
2024/02/01 13:51:50;;;;;;;;;;;;;;;;;;5048919;28;19929;-80
2024/02/01 13:54:17;;;;;;;;;;;;;;;;;;5050836;28;19929;-80
2024/02/01 13:56:44;;;;;;;;;;;;;;;;;;5050078;28;19935;-80
2024/02/01 13:59:11;;;;;;;;;;;;;;;;;;5049609;28;19928;-79
2024/02/01 14:01:38;;;;;;;;;;;;;;;;;;5043621;28;20358;-73
2024/02/01 14:04:05;;;;;;;;;;;;;;;;;;5047735;28;19976;-72
2024/02/01 14:06:32;;;;;;;;;;;;;;;;;;5040785;28;20092;-79
2024/02/01 14:09:00;;;;;;;;;;;;;;;;;;5046113;28;20411;-72
2024/02/01 14:11:27;;;;;;;;;;;;;;;;;;5046565;28;20007;-73
2024/02/01 14:13:54;;;;;;;;;;;;;;;;;;5038824;28;19956;-73
2024/02/01 14:16:21;;;;;;;;;;;;;;;;;;5047004;28;19964;-79
2024/02/01 14:18:49;;;;;;;;;;;;;;;;;;5047200;28;20277;-80
2024/02/01 14:21:16;;;;;;;;;;;;;;;;;;5047493;28;20615;-78
2024/02/01 14:23:43;;;;;;;;;;;;;;;;;;5052302;28;19929;-82
2024/02/01 14:26:10;;;;;;;;;;;;;;;;;;5041722;28;19972;-77
2024/02/01 14:28:37;;;;;;;;;;;;;;;;;;5044956;28;19968;-79
2024/02/01 14:31:04;;;;;;;;;;;;;;;;;;5046336;28;19975;-81
2024/02/01 14:33:31;;;;;;;;;;;;;;;;;;5048064;28;19962;-80
2024/02/01 14:35:58;;;;;;;;;;;;;;;;;;5048529;28;19979;-83
2024/02/01 14:38:26;;;;;;;;;;;;;;;;;;5048960;28;20030;-83
2024/02/01 14:40:53;;;;;;;;;;;;;;;;;;5048826;28;20461;-80
2024/02/01 14:43:20;;;;;;;;;;;;;;;;;;5047036;28;19932;-78
2024/02/01 14:45:47;;;;;;;;;;;;;;;;;;5048618;28;19978;-82
2024/02/01 14:48:14;;;;;;;;;;;;;;;;;;5045878;28;19956;-82
2024/02/01 14:50:41;;;;;;;;;;;;;;;;;;5046173;28;20403;-83
2024/02/01 14:53:08;;;;;;;;;;;;;;;;;;5046530;28;20081;-82
2024/02/01 14:55:35;;;;;;;;;;;;;;;;;;5044234;28;20018;-80
2024/02/01 14:58:03;;;;;;;;;;;;;;;;;;5052369;28;19999;-81
2024/02/01 15:00:31;;;;;;;;;;;;;;;;;;5042819;28;20385;-82
2024/02/01 15:02:58;;;;;;;;;;;;;;;;;;5041459;28;20036;-81
2024/02/01 15:05:25;;;;;;;;;;;;;;;;;;5047088;28;19951;-77
2024/02/01 15:07:52;;;;;;;;;;;;;;;;;;5049494;28;19929;-81
2024/02/01 15:10:19;;;;;;;;;;;;;;;;;;5046183;28;19990;-80
2024/02/01 15:12:46;;;;;;;;;;;;;;;;;;5040965;28;20037;-80
2024/02/01 15:15:13;;;;;;;;;;;;;;;;;;5048193;28;19968;-82
2024/02/01 15:17:40;;;;;;;;;;;;;;;;;;5045372;28;19928;-79
2024/02/01 15:20:07;;;;;;;;;;;;;;;;;;5045131;28;20009;-79
2024/02/01 15:22:34;;;;;;;;;;;;;;;;;;5038066;28;20052;-80
2024/02/01 15:25:01;;;;;;;;;;;;;;;;;;5036072;28;19994;-84
2024/02/01 15:27:28;;;;;;;;;;;;;;;;;;5045248;28;19928;-81
2024/02/01 15:29:56;;;;;;;;;;;;;;;;;;5045745;28;20293;-79
2024/02/01 15:32:23;;;;;;;;;;;;;;;;;;5040705;28;20352;-81
2024/02/01 15:34:50;;;;;;;;;;;;;;;;;;5046329;28;20472;-80
2024/02/01 15:37:18;;;;;;;;;;;;;;;;;;5046405;28;20010;-77
2024/02/01 15:39:45;;;;;;;;;;;;;;;;;;5042875;28;19929;-80
2024/02/01 15:42:12;;;;;;;;;;;;;;;;;;5045033;28;20002;-81
2024/02/01 15:44:46;;;;;;;;;;;;;;;;;;5044371;28;19984;-82
2024/02/01 15:47:14;;;;;;;;;;;;;;;;;;5045176;28;20696;-84
2024/02/01 15:49:41;;;;;;;;;;;;;;;;;;5040461;28;20426;-87
2024/02/01 15:52:10;;;;;;;;;;;;;;;;;;5045689;28;19929;-86
2024/02/01 15:54:37;;;;;;;;;;;;;;;;;;5033751;28;20352;-84
2024/02/01 15:57:05;;;;;;;;;;;;;;;;;;5044696;28;20011;-85
2024/02/01 15:59:32;;;;;;;;;;;;;;;;;;5035960;28;20606;-86
2024/02/01 16:01:59;;;;;;;;;;;;;;;;;;5045822;28;20010;-85
2024/02/01 16:04:26;;;;;;;;;;;;;;;;;;5045351;28;19968;-82
2024/02/01 16:06:53;;;;;;;;;;;;;;;;;;5047032;28;19975;-83
2024/02/01 16:09:20;;;;;;;;;;;;;;;;;;5050156;28;19933;-84
2024/02/01 16:11:47;;;;;;;;;;;;;;;;;;5050890;28;20361;-81
2024/02/01 16:14:14;;;;;;;;;;;;;;;;;;5051164;28;19964;-78
2024/02/01 16:16:42;;;;;;;;;;;;;;;;;;5050737;28;20331;-81
2024/02/01 16:19:09;;;;;;;;;;;;;;;;;;5055631;28;19929;-83
2024/02/01 16:21:36;;;;;;;;;;;;;;;;;;5056953;28;20383;-79
2024/02/01 16:24:03;;;;;;;;;;;;;;;;;;5048062;28;19971;-81
2024/02/01 16:26:30;;;;;;;;;;;;;;;;;;5048994;28;19936;-81
2024/02/01 16:28:57;;;;;;;;;;;;;;;;;;5056482;28;20430;-81
2024/02/01 16:31:25;;;;;;;;;;;;;;;;;;5054357;28;20348;-82
2024/02/01 16:33:53;;;;;;;;;;;;;;;;;;5045599;28;19940;-79
2024/02/01 16:36:21;;;;;;;;;;;;;;;;;;5047291;28;19936;-82
2024/02/01 16:38:49;;;;;;;;;;;;;;;;;;5047913;28;20786;-82
2024/02/01 16:41:16;;;;;;;;;;;;;;;;;;5048833;28;19928;-82
2024/02/01 16:43:43;;;;;;;;;;;;;;;;;;5048835;28;20400;-81
2024/02/01 16:46:10;;;;;;;;;;;;;;;;;;5049021;28;19964;-82
2024/02/01 16:48:37;;;;;;;;;;;;;;;;;;5050104;28;19964;-80
2024/02/01 16:51:04;;;;;;;;;;;;;;;;;;5053848;28;19935;-82
2024/02/01 16:53:31;;;;;;;;;;;;;;;;;;5053205;28;19929;-79
2024/02/01 16:55:58;;;;;;;;;;;;;;;;;;5051805;28;19928;-80
2024/02/01 16:58:25;;;;;;;;;;;;;;;;;;5048808;28;19960;-80
2024/02/01 17:00:52;;;;;;;;;;;;;;;;;;5050991;28;19937;-80
2024/02/01 17:03:20;;;;;;;;;;;;;;;;;;5048722;28;19929;-80
2024/02/01 17:05:47;;;;;;;;;;;;;;;;;;5050734;28;19928;-78
2024/02/01 17:08:14;;;;;;;;;;;;;;;;;;5049204;28;19947;-82
2024/02/01 17:10:41;;;;;;;;;;;;;;;;;;5050008;28;19928;-79
2024/02/01 17:13:09;;;;;;;;;;;;;;;;;;5050137;28;19929;-83
2024/02/01 17:15:35;;;;;;;;;;;;;;;;;;5050478;28;19959;-82
2024/02/01 17:18:02;;;;;;;;;;;;;;;;;;5049945;28;19933;-83
2024/02/01 17:20:30;;;;;;;;;;;;;;;;;;5049357;28;19928;-77
2024/02/01 17:22:57;;;;;;;;;;;;;;;;;;5049881;28;19955;-83